sensor_id;sensor_type;location;lat;lon;timestamp;P1;durP1;ratioP1;P2;durP2;ratioP2
48727;SDS011;34527;45.618;5.130;2023-05-10T00:01:53;2.55;;;1.25;;
48727;SDS011;34527;45.618;5.130;2023-05-10T00:04:19;2.03;;;0.93;;
48727;SDS011;34527;45.618;5.130;2023-05-10T00:06:45;1.52;;;1.08;;
48727;SDS011;34527;45.618;5.130;2023-05-10T00:09:11;2.88;;;1.10;;
48727;SDS011;34527;45.618;5.130;2023-05-10T00:11:36;3.35;;;1.00;;
48727;SDS011;34527;45.618;5.130;2023-05-10T00:14:02;2.25;;;1.00;;
48727;SDS011;34527;45.618;5.130;2023-05-10T00:16:28;3.35;;;1.00;;
48727;SDS011;34527;45.618;5.130;2023-05-10T00:18:53;3.83;;;1.00;;
48727;SDS011;34527;45.618;5.130;2023-05-10T00:21:19;4.15;;;1.15;;
48727;SDS011;34527;45.618;5.130;2023-05-10T00:23:45;3.63;;;1.13;;
48727;SDS011;34527;45.618;5.130;2023-05-10T00:26:11;3.00;;;1.08;;
48727;SDS011;34527;45.618;5.130;2023-05-10T00:28:37;4.38;;;1.02;;
48727;SDS011;34527;45.618;5.130;2023-05-10T00:31:02;2.35;;;1.15;;
48727;SDS011;34527;45.618;5.130;2023-05-10T00:33:28;4.78;;;1.10;;
48727;SDS011;34527;45.618;5.130;2023-05-10T00:35:53;4.65;;;1.55;;
48727;SDS011;34527;45.618;5.130;2023-05-10T00:38:19;6.63;;;1.45;;
48727;SDS011;34527;45.618;5.130;2023-05-10T00:40:45;3.50;;;1.17;;
48727;SDS011;34527;45.618;5.130;2023-05-10T00:43:11;4.97;;;1.17;;
48727;SDS011;34527;45.618;5.130;2023-05-10T00:45:36;4.00;;;1.67;;
48727;SDS011;34527;45.618;5.130;2023-05-10T00:48:04;1.92;;;1.30;;
48727;SDS011;34527;45.618;5.130;2023-05-10T00:50:30;1.33;;;0.90;;
48727;SDS011;34527;45.618;5.130;2023-05-10T00:52:57;5.35;;;1.10;;
48727;SDS011;34527;45.618;5.130;2023-05-10T00:55:27;3.13;;;1.20;;
48727;SDS011;34527;45.618;5.130;2023-05-10T00:57:53;3.95;;;1.48;;
48727;SDS011;34527;45.618;5.130;2023-05-10T01:00:19;2.05;;;1.00;;
48727;SDS011;34527;45.618;5.130;2023-05-10T01:02:45;5.68;;;1.30;;
48727;SDS011;34527;45.618;5.130;2023-05-10T01:05:11;2.00;;;1.08;;
48727;SDS011;34527;45.618;5.130;2023-05-10T01:07:37;2.60;;;0.90;;
48727;SDS011;34527;45.618;5.130;2023-05-10T01:10:04;2.92;;;1.05;;
48727;SDS011;34527;45.618;5.130;2023-05-10T01:12:31;3.50;;;1.50;;
48727;SDS011;34527;45.618;5.130;2023-05-10T01:14:58;1.00;;;0.90;;
48727;SDS011;34527;45.618;5.130;2023-05-10T01:17:25;3.13;;;1.10;;
48727;SDS011;34527;45.618;5.130;2023-05-10T01:19:51;3.63;;;1.00;;
48727;SDS011;34527;45.618;5.130;2023-05-10T01:28:42;1.38;;;1.20;;
48727;SDS011;34527;45.618;5.130;2023-05-10T01:34:41;3.30;;;1.00;;
48727;SDS011;34527;45.618;5.130;2023-05-10T01:40:32;3.47;;;1.10;;
48727;SDS011;34527;45.618;5.130;2023-05-10T01:43:05;3.20;;;1.10;;
48727;SDS011;34527;45.618;5.130;2023-05-10T01:45:41;1.02;;;0.93;;
48727;SDS011;34527;45.618;5.130;2023-05-10T01:48:17;1.70;;;0.85;;
48727;SDS011;34527;45.618;5.130;2023-05-10T01:50:45;0.85;;;0.80;;
48727;SDS011;34527;45.618;5.130;2023-05-10T01:53:13;0.95;;;0.90;;
48727;SDS011;34527;45.618;5.130;2023-05-10T01:55:48;3.85;;;0.88;;
48727;SDS011;34527;45.618;5.130;2023-05-10T01:58:19;1.92;;;0.98;;
48727;SDS011;34527;45.618;5.130;2023-05-10T02:00:47;1.17;;;0.90;;
48727;SDS011;34527;45.618;5.130;2023-05-10T02:03:15;2.60;;;0.77;;
48727;SDS011;34527;45.618;5.130;2023-05-10T02:05:43;4.55;;;1.00;;
48727;SDS011;34527;45.618;5.130;2023-05-10T02:08:10;2.80;;;0.98;;
48727;SDS011;34527;45.618;5.130;2023-05-10T02:10:36;6.38;;;0.75;;
48727;SDS011;34527;45.618;5.130;2023-05-10T02:13:04;1.10;;;0.80;;
48727;SDS011;34527;45.618;5.130;2023-05-10T02:15:32;0.60;;;0.60;;
48727;SDS011;34527;45.618;5.130;2023-05-10T02:17:59;3.03;;;0.80;;
48727;SDS011;34527;45.618;5.130;2023-05-10T02:20:27;4.20;;;0.90;;
48727;SDS011;34527;45.618;5.130;2023-05-10T02:22:54;1.27;;;0.80;;
48727;SDS011;34527;45.618;5.130;2023-05-10T02:25:23;0.73;;;0.70;;
48727;SDS011;34527;45.618;5.130;2023-05-10T02:27:49;4.20;;;1.00;;
48727;SDS011;34527;45.618;5.130;2023-05-10T02:30:19;1.00;;;0.80;;
48727;SDS011;34527;45.618;5.130;2023-05-10T02:32:45;1.85;;;0.90;;
48727;SDS011;34527;45.618;5.130;2023-05-10T02:35:13;0.98;;;0.90;;
48727;SDS011;34527;45.618;5.130;2023-05-10T02:37:40;2.40;;;0.80;;
48727;SDS011;34527;45.618;5.130;2023-05-10T02:40:06;3.17;;;0.75;;
48727;SDS011;34527;45.618;5.130;2023-05-10T02:42:35;1.30;;;0.70;;
48727;SDS011;34527;45.618;5.130;2023-05-10T02:45:04;1.75;;;1.15;;
48727;SDS011;34527;45.618;5.130;2023-05-10T02:47:32;0.77;;;0.73;;
48727;SDS011;34527;45.618;5.130;2023-05-10T02:49:59;2.08;;;0.80;;
48727;SDS011;34527;45.618;5.130;2023-05-10T02:52:25;1.23;;;0.93;;
48727;SDS011;34527;45.618;5.130;2023-05-10T02:54:55;1.08;;;0.80;;
48727;SDS011;34527;45.618;5.130;2023-05-10T02:57:25;1.35;;;0.90;;
48727;SDS011;34527;45.618;5.130;2023-05-10T02:59:53;0.80;;;0.80;;
48727;SDS011;34527;45.618;5.130;2023-05-10T03:02:19;1.35;;;0.80;;
48727;SDS011;34527;45.618;5.130;2023-05-10T03:04:46;2.92;;;0.73;;
48727;SDS011;34527;45.618;5.130;2023-05-10T03:07:11;0.70;;;0.70;;
48727;SDS011;34527;45.618;5.130;2023-05-10T03:09:37;2.63;;;0.85;;
48727;SDS011;34527;45.618;5.130;2023-05-10T03:14:57;1.17;;;0.70;;
48727;SDS011;34527;45.618;5.130;2023-05-10T03:17:39;5.28;;;0.85;;
48727;SDS011;34527;45.618;5.130;2023-05-10T03:20:31;1.08;;;0.93;;
48727;SDS011;34527;45.618;5.130;2023-05-10T03:23:07;2.42;;;0.90;;
48727;SDS011;34527;45.618;5.130;2023-05-10T03:25:37;0.85;;;0.85;;
48727;SDS011;34527;45.618;5.130;2023-05-10T03:28:04;2.47;;;0.75;;
48727;SDS011;34527;45.618;5.130;2023-05-10T03:30:31;3.35;;;0.70;;
48727;SDS011;34527;45.618;5.130;2023-05-10T03:32:57;1.88;;;0.90;;
48727;SDS011;34527;45.618;5.130;2023-05-10T03:35:22;1.70;;;0.95;;
48727;SDS011;34527;45.618;5.130;2023-05-10T03:37:49;3.75;;;0.90;;
48727;SDS011;34527;45.618;5.130;2023-05-10T03:40:14;1.30;;;0.80;;
48727;SDS011;34527;45.618;5.130;2023-05-10T03:42:40;1.40;;;0.80;;
48727;SDS011;34527;45.618;5.130;2023-05-10T03:45:06;2.78;;;0.88;;
48727;SDS011;34527;45.618;5.130;2023-05-10T03:47:32;2.13;;;0.80;;
48727;SDS011;34527;45.618;5.130;2023-05-10T03:49:58;5.72;;;0.93;;
48727;SDS011;34527;45.618;5.130;2023-05-10T03:52:24;1.70;;;0.80;;
48727;SDS011;34527;45.618;5.130;2023-05-10T03:54:50;2.17;;;1.00;;
48727;SDS011;34527;45.618;5.130;2023-05-10T03:57:15;1.38;;;1.10;;
48727;SDS011;34527;45.618;5.130;2023-05-10T03:59:41;3.15;;;0.80;;
48727;SDS011;34527;45.618;5.130;2023-05-10T04:02:06;2.20;;;1.10;;
48727;SDS011;34527;45.618;5.130;2023-05-10T04:04:32;1.13;;;0.98;;
48727;SDS011;34527;45.618;5.130;2023-05-10T04:06:58;5.82;;;1.17;;
48727;SDS011;34527;45.618;5.130;2023-05-10T04:09:23;2.53;;;0.88;;
48727;SDS011;34527;45.618;5.130;2023-05-10T04:11:49;2.33;;;1.10;;
48727;SDS011;34527;45.618;5.130;2023-05-10T04:14:14;4.03;;;1.48;;
48727;SDS011;34527;45.618;5.130;2023-05-10T04:16:40;5.22;;;2.05;;
48727;SDS011;34527;45.618;5.130;2023-05-10T04:19:06;5.75;;;1.35;;
48727;SDS011;34527;45.618;5.130;2023-05-10T04:21:31;4.55;;;1.40;;
48727;SDS011;34527;45.618;5.130;2023-05-10T04:23:57;6.35;;;1.30;;
48727;SDS011;34527;45.618;5.130;2023-05-10T04:26:23;4.70;;;1.70;;
48727;SDS011;34527;45.618;5.130;2023-05-10T04:28:49;6.78;;;1.80;;
48727;SDS011;34527;45.618;5.130;2023-05-10T04:31:16;4.57;;;1.80;;
48727;SDS011;34527;45.618;5.130;2023-05-10T04:33:42;4.43;;;1.80;;
48727;SDS011;34527;45.618;5.130;2023-05-10T04:36:07;6.53;;;1.65;;
48727;SDS011;34527;45.618;5.130;2023-05-10T04:38:33;6.40;;;2.17;;
48727;SDS011;34527;45.618;5.130;2023-05-10T04:41:06;5.53;;;2.20;;
48727;SDS011;34527;45.618;5.130;2023-05-10T04:43:32;12.50;;;1.88;;
48727;SDS011;34527;45.618;5.130;2023-05-10T04:45:58;1.60;;;1.30;;
48727;SDS011;34527;45.618;5.130;2023-05-10T04:48:23;5.18;;;1.40;;
48727;SDS011;34527;45.618;5.130;2023-05-10T04:50:49;7.32;;;1.60;;
48727;SDS011;34527;45.618;5.130;2023-05-10T04:53:14;5.90;;;1.70;;
48727;SDS011;34527;45.618;5.130;2023-05-10T04:55:40;3.00;;;1.52;;
48727;SDS011;34527;45.618;5.130;2023-05-10T04:58:06;4.47;;;1.98;;
48727;SDS011;34527;45.618;5.130;2023-05-10T05:00:32;5.43;;;1.83;;
48727;SDS011;34527;45.618;5.130;2023-05-10T05:02:58;5.32;;;1.73;;
48727;SDS011;34527;45.618;5.130;2023-05-10T05:05:24;6.63;;;1.75;;
48727;SDS011;34527;45.618;5.130;2023-05-10T05:07:50;6.38;;;1.77;;
48727;SDS011;34527;45.618;5.130;2023-05-10T05:10:16;8.93;;;2.38;;
48727;SDS011;34527;45.618;5.130;2023-05-10T05:12:41;3.75;;;1.63;;
48727;SDS011;34527;45.618;5.130;2023-05-10T05:15:07;5.10;;;1.55;;
48727;SDS011;34527;45.618;5.130;2023-05-10T05:17:34;7.10;;;1.70;;
48727;SDS011;34527;45.618;5.130;2023-05-10T05:20:00;7.70;;;1.88;;
48727;SDS011;34527;45.618;5.130;2023-05-10T05:22:26;6.80;;;2.25;;
48727;SDS011;34527;45.618;5.130;2023-05-10T05:24:56;6.60;;;2.03;;
48727;SDS011;34527;45.618;5.130;2023-05-10T05:27:23;5.97;;;2.00;;
48727;SDS011;34527;45.618;5.130;2023-05-10T05:29:54;5.55;;;1.60;;
48727;SDS011;34527;45.618;5.130;2023-05-10T05:32:23;4.70;;;1.90;;
48727;SDS011;34527;45.618;5.130;2023-05-10T05:34:49;5.57;;;1.50;;
48727;SDS011;34527;45.618;5.130;2023-05-10T05:37:15;5.00;;;1.88;;
48727;SDS011;34527;45.618;5.130;2023-05-10T05:39:42;6.18;;;1.98;;
48727;SDS011;34527;45.618;5.130;2023-05-10T05:42:08;4.95;;;1.50;;
48727;SDS011;34527;45.618;5.130;2023-05-10T05:44:34;5.80;;;1.88;;
48727;SDS011;34527;45.618;5.130;2023-05-10T05:47:00;4.72;;;1.70;;
48727;SDS011;34527;45.618;5.130;2023-05-10T05:49:26;3.13;;;1.50;;
48727;SDS011;34527;45.618;5.130;2023-05-10T05:51:51;4.97;;;1.90;;
48727;SDS011;34527;45.618;5.130;2023-05-10T05:54:17;9.95;;;2.20;;
48727;SDS011;34527;45.618;5.130;2023-05-10T05:56:42;4.35;;;2.35;;
48727;SDS011;34527;45.618;5.130;2023-05-10T05:59:09;6.80;;;1.80;;
48727;SDS011;34527;45.618;5.130;2023-05-10T06:01:35;5.68;;;1.77;;
48727;SDS011;34527;45.618;5.130;2023-05-10T06:04:01;7.00;;;2.63;;
48727;SDS011;34527;45.618;5.130;2023-05-10T06:06:26;6.35;;;2.15;;
48727;SDS011;34527;45.618;5.130;2023-05-10T06:08:52;8.13;;;1.90;;
48727;SDS011;34527;45.618;5.130;2023-05-10T06:11:18;5.80;;;1.70;;
48727;SDS011;34527;45.618;5.130;2023-05-10T06:13:43;7.35;;;1.80;;
48727;SDS011;34527;45.618;5.130;2023-05-10T06:16:09;7.40;;;2.10;;
48727;SDS011;34527;45.618;5.130;2023-05-10T06:18:35;4.15;;;1.58;;
48727;SDS011;34527;45.618;5.130;2023-05-10T06:21:01;6.57;;;1.88;;
48727;SDS011;34527;45.618;5.130;2023-05-10T06:23:26;8.30;;;1.92;;
48727;SDS011;34527;45.618;5.130;2023-05-10T06:25:52;5.10;;;1.67;;
48727;SDS011;34527;45.618;5.130;2023-05-10T06:28:17;9.80;;;1.80;;
48727;SDS011;34527;45.618;5.130;2023-05-10T06:30:43;5.45;;;1.75;;
48727;SDS011;34527;45.618;5.130;2023-05-10T06:33:09;7.80;;;2.28;;
48727;SDS011;34527;45.618;5.130;2023-05-10T06:35:35;8.10;;;1.88;;
48727;SDS011;34527;45.618;5.130;2023-05-10T06:38:01;7.40;;;1.55;;
48727;SDS011;34527;45.618;5.130;2023-05-10T06:40:27;6.68;;;1.77;;
48727;SDS011;34527;45.618;5.130;2023-05-10T06:42:53;7.18;;;1.65;;
48727;SDS011;34527;45.618;5.130;2023-05-10T06:45:18;5.50;;;1.70;;
48727;SDS011;34527;45.618;5.130;2023-05-10T06:47:44;4.93;;;1.80;;
48727;SDS011;34527;45.618;5.130;2023-05-10T06:50:10;6.85;;;1.65;;
48727;SDS011;34527;45.618;5.130;2023-05-10T06:52:37;11.90;;;2.35;;
48727;SDS011;34527;45.618;5.130;2023-05-10T06:55:03;6.57;;;1.73;;
48727;SDS011;34527;45.618;5.130;2023-05-10T06:57:29;5.45;;;1.60;;
48727;SDS011;34527;45.618;5.130;2023-05-10T06:59:55;8.45;;;2.00;;
48727;SDS011;34527;45.618;5.130;2023-05-10T07:02:21;5.55;;;1.70;;
48727;SDS011;34527;45.618;5.130;2023-05-10T07:04:47;5.05;;;1.88;;
48727;SDS011;34527;45.618;5.130;2023-05-10T07:07:13;6.10;;;1.58;;
48727;SDS011;34527;45.618;5.130;2023-05-10T07:09:39;6.03;;;1.70;;
48727;SDS011;34527;45.618;5.130;2023-05-10T07:12:05;5.50;;;1.63;;
48727;SDS011;34527;45.618;5.130;2023-05-10T07:14:31;9.50;;;1.98;;
48727;SDS011;34527;45.618;5.130;2023-05-10T07:16:56;7.35;;;2.08;;
48727;SDS011;34527;45.618;5.130;2023-05-10T07:19:22;3.58;;;1.48;;
48727;SDS011;34527;45.618;5.130;2023-05-10T07:21:48;6.50;;;1.60;;
48727;SDS011;34527;45.618;5.130;2023-05-10T07:24:13;6.82;;;1.90;;
48727;SDS011;34527;45.618;5.130;2023-05-10T07:26:39;6.13;;;1.58;;
48727;SDS011;34527;45.618;5.130;2023-05-10T07:29:04;3.95;;;1.92;;
48727;SDS011;34527;45.618;5.130;2023-05-10T07:31:30;6.80;;;1.90;;
48727;SDS011;34527;45.618;5.130;2023-05-10T07:33:56;10.35;;;2.25;;
48727;SDS011;34527;45.618;5.130;2023-05-10T07:36:21;5.85;;;1.80;;
48727;SDS011;34527;45.618;5.130;2023-05-10T07:38:47;6.80;;;1.60;;
48727;SDS011;34527;45.618;5.130;2023-05-10T07:41:14;7.13;;;1.80;;
48727;SDS011;34527;45.618;5.130;2023-05-10T07:43:40;5.05;;;1.60;;
48727;SDS011;34527;45.618;5.130;2023-05-10T07:46:05;8.38;;;1.55;;
48727;SDS011;34527;45.618;5.130;2023-05-10T07:48:31;5.20;;;1.88;;
48727;SDS011;34527;45.618;5.130;2023-05-10T07:50:56;9.23;;;1.70;;
48727;SDS011;34527;45.618;5.130;2023-05-10T07:53:22;5.20;;;1.70;;
48727;SDS011;34527;45.618;5.130;2023-05-10T07:55:51;5.40;;;1.60;;
48727;SDS011;34527;45.618;5.130;2023-05-10T07:58:19;4.43;;;1.83;;
48727;SDS011;34527;45.618;5.130;2023-05-10T08:00:45;2.85;;;1.23;;
48727;SDS011;34527;45.618;5.130;2023-05-10T08:03:10;8.25;;;2.03;;
48727;SDS011;34527;45.618;5.130;2023-05-10T08:05:36;3.92;;;1.20;;
48727;SDS011;34527;45.618;5.130;2023-05-10T08:08:02;6.38;;;1.45;;
48727;SDS011;34527;45.618;5.130;2023-05-10T08:10:27;4.78;;;1.63;;
48727;SDS011;34527;45.618;5.130;2023-05-10T08:12:53;4.43;;;1.55;;
48727;SDS011;34527;45.618;5.130;2023-05-10T08:15:19;3.53;;;1.20;;
48727;SDS011;34527;45.618;5.130;2023-05-10T08:17:45;8.27;;;1.90;;
48727;SDS011;34527;45.618;5.130;2023-05-10T08:20:10;8.15;;;1.60;;
48727;SDS011;34527;45.618;5.130;2023-05-10T08:22:37;5.10;;;1.55;;
48727;SDS011;34527;45.618;5.130;2023-05-10T08:25:03;6.18;;;1.85;;
48727;SDS011;34527;45.618;5.130;2023-05-10T08:27:29;7.53;;;1.60;;
48727;SDS011;34527;45.618;5.130;2023-05-10T08:29:55;4.07;;;1.30;;
48727;SDS011;34527;45.618;5.130;2023-05-10T08:32:20;7.53;;;1.52;;
48727;SDS011;34527;45.618;5.130;2023-05-10T08:34:46;6.30;;;1.60;;
48727;SDS011;34527;45.618;5.130;2023-05-10T08:37:11;8.82;;;1.70;;
48727;SDS011;34527;45.618;5.130;2023-05-10T08:39:38;7.38;;;1.70;;
48727;SDS011;34527;45.618;5.130;2023-05-10T08:42:04;8.18;;;1.70;;
48727;SDS011;34527;45.618;5.130;2023-05-10T08:44:33;7.50;;;1.58;;
48727;SDS011;34527;45.618;5.130;2023-05-10T08:47:02;5.70;;;1.50;;
48727;SDS011;34527;45.618;5.130;2023-05-10T08:49:30;7.20;;;1.67;;
48727;SDS011;34527;45.618;5.130;2023-05-10T08:51:57;6.60;;;1.65;;
48727;SDS011;34527;45.618;5.130;2023-05-10T08:54:24;5.88;;;1.50;;
48727;SDS011;34527;45.618;5.130;2023-05-10T08:56:50;6.97;;;1.60;;
48727;SDS011;34527;45.618;5.130;2023-05-10T08:59:16;7.32;;;1.63;;
48727;SDS011;34527;45.618;5.130;2023-05-10T09:01:42;6.70;;;1.50;;
48727;SDS011;34527;45.618;5.130;2023-05-10T09:04:09;4.65;;;1.42;;
48727;SDS011;34527;45.618;5.130;2023-05-10T09:06:35;6.38;;;1.67;;
48727;SDS011;34527;45.618;5.130;2023-05-10T09:09:01;4.43;;;1.23;;
48727;SDS011;34527;45.618;5.130;2023-05-10T09:11:28;11.35;;;1.30;;
48727;SDS011;34527;45.618;5.130;2023-05-10T09:13:55;4.70;;;1.20;;
48727;SDS011;34527;45.618;5.130;2023-05-10T09:16:21;6.57;;;1.50;;
48727;SDS011;34527;45.618;5.130;2023-05-10T09:18:48;4.60;;;1.42;;
48727;SDS011;34527;45.618;5.130;2023-05-10T09:21:14;8.15;;;1.88;;
48727;SDS011;34527;45.618;5.130;2023-05-10T09:23:44;6.82;;;1.38;;
48727;SDS011;34527;45.618;5.130;2023-05-10T09:26:11;8.50;;;1.45;;
48727;SDS011;34527;45.618;5.130;2023-05-10T09:28:53;5.78;;;1.48;;
48727;SDS011;34527;45.618;5.130;2023-05-10T09:31:20;2.97;;;1.25;;
48727;SDS011;34527;45.618;5.130;2023-05-10T09:33:46;3.55;;;2.08;;
48727;SDS011;34527;45.618;5.130;2023-05-10T09:36:13;6.68;;;1.77;;
48727;SDS011;34527;45.618;5.130;2023-05-10T09:38:49;4.82;;;1.45;;
48727;SDS011;34527;45.618;5.130;2023-05-10T09:41:17;7.75;;;1.30;;
48727;SDS011;34527;45.618;5.130;2023-05-10T09:43:44;7.45;;;1.45;;
48727;SDS011;34527;45.618;5.130;2023-05-10T09:46:09;5.47;;;1.70;;
48727;SDS011;34527;45.618;5.130;2023-05-10T09:48:39;5.00;;;1.50;;
48727;SDS011;34527;45.618;5.130;2023-05-10T09:51:08;6.00;;;1.60;;
48727;SDS011;34527;45.618;5.130;2023-05-10T09:53:33;5.22;;;1.60;;
48727;SDS011;34527;45.618;5.130;2023-05-10T09:55:59;6.47;;;1.90;;
48727;SDS011;34527;45.618;5.130;2023-05-10T09:58:24;5.57;;;2.20;;
48727;SDS011;34527;45.618;5.130;2023-05-10T10:00:50;7.20;;;1.67;;
48727;SDS011;34527;45.618;5.130;2023-05-10T10:03:17;6.07;;;1.60;;
48727;SDS011;34527;45.618;5.130;2023-05-10T10:05:53;5.85;;;1.40;;
48727;SDS011;34527;45.618;5.130;2023-05-10T10:08:20;4.93;;;1.73;;
48727;SDS011;34527;45.618;5.130;2023-05-10T10:10:46;5.50;;;1.98;;
48727;SDS011;34527;45.618;5.130;2023-05-10T10:13:12;5.28;;;1.50;;
48727;SDS011;34527;45.618;5.130;2023-05-10T10:15:38;3.50;;;1.35;;
48727;SDS011;34527;45.618;5.130;2023-05-10T10:18:05;9.52;;;1.80;;
48727;SDS011;34527;45.618;5.130;2023-05-10T10:20:31;5.65;;;1.88;;
48727;SDS011;34527;45.618;5.130;2023-05-10T10:22:57;6.13;;;1.33;;
48727;SDS011;34527;45.618;5.130;2023-05-10T10:25:22;6.22;;;1.33;;
48727;SDS011;34527;45.618;5.130;2023-05-10T10:30:29;4.35;;;1.30;;
48727;SDS011;34527;45.618;5.130;2023-05-10T10:35:59;5.15;;;1.42;;
48727;SDS011;34527;45.618;5.130;2023-05-10T10:38:35;3.70;;;1.60;;
48727;SDS011;34527;45.618;5.130;2023-05-10T10:41:32;6.63;;;1.58;;
48727;SDS011;34527;45.618;5.130;2023-05-10T10:49:49;3.50;;;1.00;;
48727;SDS011;34527;45.618;5.130;2023-05-10T11:02:58;4.60;;;1.67;;
48727;SDS011;34527;45.618;5.130;2023-05-10T11:05:41;4.70;;;1.60;;
48727;SDS011;34527;45.618;5.130;2023-05-10T11:08:09;2.60;;;1.37;;
48727;SDS011;34527;45.618;5.130;2023-05-10T11:10:35;5.07;;;2.10;;
48727;SDS011;34527;45.618;5.130;2023-05-10T11:13:10;6.03;;;1.80;;
48727;SDS011;34527;45.618;5.130;2023-05-10T11:15:36;5.40;;;1.40;;
48727;SDS011;34527;45.618;5.130;2023-05-10T11:18:16;4.80;;;1.30;;
48727;SDS011;34527;45.618;5.130;2023-05-10T11:20:43;6.65;;;1.30;;
48727;SDS011;34527;45.618;5.130;2023-05-10T11:23:12;4.38;;;1.27;;
48727;SDS011;34527;45.618;5.130;2023-05-10T11:25:41;6.55;;;1.42;;
48727;SDS011;34527;45.618;5.130;2023-05-10T11:28:13;4.22;;;1.50;;
48727;SDS011;34527;45.618;5.130;2023-05-10T11:30:39;3.15;;;1.25;;
48727;SDS011;34527;45.618;5.130;2023-05-10T11:33:07;5.07;;;1.55;;
48727;SDS011;34527;45.618;5.130;2023-05-10T11:35:37;7.25;;;1.45;;
48727;SDS011;34527;45.618;5.130;2023-05-10T11:38:10;3.72;;;1.40;;
48727;SDS011;34527;45.618;5.130;2023-05-10T11:40:37;4.03;;;1.10;;
48727;SDS011;34527;45.618;5.130;2023-05-10T11:43:04;3.97;;;1.40;;
48727;SDS011;34527;45.618;5.130;2023-05-10T11:45:33;3.40;;;1.33;;
48727;SDS011;34527;45.618;5.130;2023-05-10T11:48:00;3.75;;;1.27;;
48727;SDS011;34527;45.618;5.130;2023-05-10T11:50:26;6.45;;;1.50;;
48727;SDS011;34527;45.618;5.130;2023-05-10T11:52:53;4.70;;;1.63;;
48727;SDS011;34527;45.618;5.130;2023-05-10T11:55:19;6.45;;;1.67;;
48727;SDS011;34527;45.618;5.130;2023-05-10T11:57:45;3.95;;;1.48;;
48727;SDS011;34527;45.618;5.130;2023-05-10T12:00:12;4.22;;;1.23;;
48727;SDS011;34527;45.618;5.130;2023-05-10T12:02:39;5.68;;;1.40;;
48727;SDS011;34527;45.618;5.130;2023-05-10T12:05:05;5.65;;;1.27;;
48727;SDS011;34527;45.618;5.130;2023-05-10T12:07:31;1.77;;;1.00;;
48727;SDS011;34527;45.618;5.130;2023-05-10T12:10:04;4.43;;;1.20;;
48727;SDS011;34527;45.618;5.130;2023-05-10T12:12:45;5.47;;;1.45;;
48727;SDS011;34527;45.618;5.130;2023-05-10T12:17:47;3.88;;;1.20;;
48727;SDS011;34527;45.618;5.130;2023-05-10T12:20:20;3.13;;;1.13;;
48727;SDS011;34527;45.618;5.130;2023-05-10T12:22:50;5.82;;;1.45;;
48727;SDS011;34527;45.618;5.130;2023-05-10T12:25:18;2.47;;;1.10;;
48727;SDS011;34527;45.618;5.130;2023-05-10T12:27:48;7.22;;;1.63;;
48727;SDS011;34527;45.618;5.130;2023-05-10T12:30:18;7.13;;;1.38;;
48727;SDS011;34527;45.618;5.130;2023-05-10T12:32:48;5.07;;;1.30;;
48727;SDS011;34527;45.618;5.130;2023-05-10T12:35:14;8.90;;;2.05;;
48727;SDS011;34527;45.618;5.130;2023-05-10T12:37:42;5.75;;;1.40;;
48727;SDS011;34527;45.618;5.130;2023-05-10T12:40:08;3.83;;;1.23;;
48727;SDS011;34527;45.618;5.130;2023-05-10T12:42:38;5.97;;;1.35;;
48727;SDS011;34527;45.618;5.130;2023-05-10T12:45:05;6.88;;;1.63;;
48727;SDS011;34527;45.618;5.130;2023-05-10T12:47:32;8.15;;;1.90;;
48727;SDS011;34527;45.618;5.130;2023-05-10T12:49:58;3.60;;;1.27;;
48727;SDS011;34527;45.618;5.130;2023-05-10T12:52:25;3.13;;;1.17;;
48727;SDS011;34527;45.618;5.130;2023-05-10T12:54:51;3.75;;;1.40;;
48727;SDS011;34527;45.618;5.130;2023-05-10T12:57:17;7.75;;;1.63;;
48727;SDS011;34527;45.618;5.130;2023-05-10T12:59:43;2.78;;;1.30;;
48727;SDS011;34527;45.618;5.130;2023-05-10T13:02:09;3.67;;;1.33;;
48727;SDS011;34527;45.618;5.130;2023-05-10T13:04:35;4.05;;;1.30;;
48727;SDS011;34527;45.618;5.130;2023-05-10T13:07:04;5.40;;;1.50;;
48727;SDS011;34527;45.618;5.130;2023-05-10T13:09:32;4.47;;;1.27;;
48727;SDS011;34527;45.618;5.130;2023-05-10T13:11:58;9.25;;;1.30;;
48727;SDS011;34527;45.618;5.130;2023-05-10T13:14:24;6.78;;;1.58;;
48727;SDS011;34527;45.618;5.130;2023-05-10T13:16:49;9.07;;;1.70;;
48727;SDS011;34527;45.618;5.130;2023-05-10T13:19:15;5.30;;;1.20;;
48727;SDS011;34527;45.618;5.130;2023-05-10T13:21:41;3.65;;;1.33;;
48727;SDS011;34527;45.618;5.130;2023-05-10T13:24:09;3.75;;;1.42;;
48727;SDS011;34527;45.618;5.130;2023-05-10T13:26:35;5.47;;;1.17;;
48727;SDS011;34527;45.618;5.130;2023-05-10T13:29:01;5.20;;;1.40;;
48727;SDS011;34527;45.618;5.130;2023-05-10T13:31:27;5.25;;;1.00;;
48727;SDS011;34527;45.618;5.130;2023-05-10T13:33:53;6.25;;;1.58;;
48727;SDS011;34527;45.618;5.130;2023-05-10T13:36:18;5.80;;;1.40;;
48727;SDS011;34527;45.618;5.130;2023-05-10T13:38:44;3.38;;;1.20;;
48727;SDS011;34527;45.618;5.130;2023-05-10T13:41:10;5.70;;;1.50;;
48727;SDS011;34527;45.618;5.130;2023-05-10T13:43:36;5.97;;;1.70;;
48727;SDS011;34527;45.618;5.130;2023-05-10T13:46:01;2.88;;;1.20;;
48727;SDS011;34527;45.618;5.130;2023-05-10T13:48:27;4.88;;;1.40;;
48727;SDS011;34527;45.618;5.130;2023-05-10T13:50:53;5.57;;;1.15;;
48727;SDS011;34527;45.618;5.130;2023-05-10T13:53:19;5.65;;;1.35;;
48727;SDS011;34527;45.618;5.130;2023-05-10T13:55:44;4.93;;;1.20;;
48727;SDS011;34527;45.618;5.130;2023-05-10T13:58:10;3.25;;;1.05;;
48727;SDS011;34527;45.618;5.130;2023-05-10T14:00:36;6.20;;;1.52;;
48727;SDS011;34527;45.618;5.130;2023-05-10T14:03:01;2.60;;;1.23;;
48727;SDS011;34527;45.618;5.130;2023-05-10T14:05:27;4.50;;;1.02;;
48727;SDS011;34527;45.618;5.130;2023-05-10T14:07:53;5.55;;;1.60;;
48727;SDS011;34527;45.618;5.130;2023-05-10T14:10:18;5.43;;;1.63;;
48727;SDS011;34527;45.618;5.130;2023-05-10T14:12:44;2.92;;;1.30;;
48727;SDS011;34527;45.618;5.130;2023-05-10T14:15:10;3.80;;;1.30;;
48727;SDS011;34527;45.618;5.130;2023-05-10T14:17:36;4.28;;;1.35;;
48727;SDS011;34527;45.618;5.130;2023-05-10T14:20:02;2.67;;;1.20;;
48727;SDS011;34527;45.618;5.130;2023-05-10T14:22:28;6.15;;;1.30;;
48727;SDS011;34527;45.618;5.130;2023-05-10T14:24:54;5.80;;;1.05;;
48727;SDS011;34527;45.618;5.130;2023-05-10T14:27:20;3.28;;;1.00;;
48727;SDS011;34527;45.618;5.130;2023-05-10T14:29:46;4.65;;;1.20;;
48727;SDS011;34527;45.618;5.130;2023-05-10T14:32:12;3.17;;;1.17;;
48727;SDS011;34527;45.618;5.130;2023-05-10T14:34:38;5.43;;;1.30;;
48727;SDS011;34527;45.618;5.130;2023-05-10T14:37:03;3.70;;;1.25;;
48727;SDS011;34527;45.618;5.130;2023-05-10T14:39:29;2.80;;;0.98;;
48727;SDS011;34527;45.618;5.130;2023-05-10T14:41:55;9.75;;;1.27;;
48727;SDS011;34527;45.618;5.130;2023-05-10T14:44:21;5.20;;;1.20;;
48727;SDS011;34527;45.618;5.130;2023-05-10T14:46:47;6.82;;;1.35;;
48727;SDS011;34527;45.618;5.130;2023-05-10T14:49:13;5.43;;;1.42;;
48727;SDS011;34527;45.618;5.130;2023-05-10T14:51:39;4.22;;;0.93;;
48727;SDS011;34527;45.618;5.130;2023-05-10T14:54:05;5.70;;;1.27;;
48727;SDS011;34527;45.618;5.130;2023-05-10T14:56:31;6.70;;;1.27;;
48727;SDS011;34527;45.618;5.130;2023-05-10T14:58:57;2.53;;;1.00;;
48727;SDS011;34527;45.618;5.130;2023-05-10T15:01:22;7.03;;;1.17;;
48727;SDS011;34527;45.618;5.130;2023-05-10T15:03:48;4.60;;;1.05;;
48727;SDS011;34527;45.618;5.130;2023-05-10T15:06:14;3.25;;;1.23;;
48727;SDS011;34527;45.618;5.130;2023-05-10T15:08:43;6.93;;;1.60;;
48727;SDS011;34527;45.618;5.130;2023-05-10T15:11:08;5.32;;;1.20;;
48727;SDS011;34527;45.618;5.130;2023-05-10T15:13:34;3.22;;;1.15;;
48727;SDS011;34527;45.618;5.130;2023-05-10T15:15:59;5.82;;;1.55;;
48727;SDS011;34527;45.618;5.130;2023-05-10T15:18:26;3.75;;;0.98;;
48727;SDS011;34527;45.618;5.130;2023-05-10T15:20:51;3.55;;;1.00;;
48727;SDS011;34527;45.618;5.130;2023-05-10T15:23:17;4.25;;;1.13;;
48727;SDS011;34527;45.618;5.130;2023-05-10T15:25:42;3.13;;;1.13;;
48727;SDS011;34527;45.618;5.130;2023-05-10T15:28:08;4.53;;;1.52;;